Monterey, LA (71354)

12:39 PM CDT on October 02, 2014 (GMT -0500)
Spring Bayou | Change Station
CLOSE
Current Station
Personal Weather Station
Location: Marksville, LA
Elevation: 52 ft
Nearby Weather Stations

Elev 52 ft 31.15 °N, 91.99 °W | Updated 4 minutes ago

Overcast
Overcast
89.2 °F
Feels Like 99 °F
N
3.1
Wind Variable Wind from South
Gusts 8.3 mph

Today
High -- | Low -- °F
--% Chance of Precip.
Yesterday
High -- | Low -- °F
Precip. -- in
7:01 AM 6:50 PM
First Quarter, 60% visible
Pressure 29.95 in
Visibility 10.0 miles
Clouds Scattered Clouds 2400 ft
Mostly Cloudy 3100 ft
Mostly Cloudy 3800 ft
Heat Index 99 °F
Dew Point 75 °F
Humidity 63%
Rainfall 0.00 in
Snow Depth Not available.
UV 5 out of 12
Pollen 7.30 out of 12
Air Quality Not available.
Flu Activity Not available.
METAR KHEZ 021735Z AUTO 19010KT 10SM SCT024 BKN031 BKN038 29/24 A2995 RMK AO1

More Conditions Fewer Conditions

Pressure 29.95 in
Visibility 10.0 miles
Clouds Scattered Clouds 2400 ft
Mostly Cloudy 3100 ft
Mostly Cloudy 3800 ft
Heat Index 99 °F
Dew Point 75 °F
Humidity 63%
Rainfall 0.00 in
Snow Depth Not available.
UV 5 out of 12
Pollen 7.30 out of 12
Air Quality Not available.
Flu Activity Not available.
METAR KHEZ 021735Z AUTO 19010KT 10SM SCT024 BKN031 BKN038 29/24 A2995 RMK AO1

More Conditions Fewer Conditions

10-Day Weather Forecast

Almanac

Astronomy

Oct. 02, 2014 Rise Set
Actual Time 7:01 AM CDT 6:50 PM CDT
Civil Twilight 6:36 AM CDT 7:14 PM CDT
Nautical Twilight 6:08 AM CDT 7:42 PM CDT
Astronomical Twilight 5:40 AM CDT 8:10 PM CDT
Moon 2:37 PM CDT 12:39 AM CDT
Length of Visible Light 12h 37m
Length of Day
11h 49m
Tomorrow will be 1m 53s shorter.
First Quarter, 60% of the Moon is Illuminated
Today
First Quarter
Oct 8
Full
Oct 15
Last Quarter
Oct 23
New
Oct 30
First Quarter

Today's Extremes

State Highs State Lows

Community

WunderPhotos

Upload Photos

1,758,305 photos uploaded!

Nearby

Snow Depth

Station Depth Elevation
No new snow has been reported.

Earthquake Activity

City Distance Mag. Time & Date
No recent earthquake activity has been reported nearby.
Minimum magnitude displayed is 2.5.

Coastal Water Temperatures

Place Temperature
No Stations Reporting

Nearby Weather Stations